Time,TemperatureF,DewpointF,PressureIn,WindDirection,WindDirectionDegrees,WindSpeedMPH,WindSpeedGustMPH,Humidity,HourlyPrecipIn,Conditions,Clouds,dailyrainin,SoftwareType,DateUTC
2013-01-15 00:08:00,10.6,8.0,30.49,West,269,0.0,0.0,89,0.00,,,0.00,weatherlink.com 1.10,2013-01-15 06:08:00,
2013-01-15 00:23:00,10.7,8.0,30.49,West,270,0.0,0.0,90,0.00,,,0.00,weatherlink.com 1.10,2013-01-15 06:23:00,
2013-01-15 00:38:00,10.3,8.0,30.48,West,270,0.0,0.0,89,0.00,,,0.00,weatherlink.com 1.10,2013-01-15 06:38:00,
2013-01-15 00:54:00,9.4,7.0,30.48,West,270,0.0,0.0,88,0.00,,,0.00,weatherlink.com 1.10,2013-01-15 06:54:00,
2013-01-15 01:09:00,8.3,6.0,30.49,West,270,0.0,0.0,89,0.00,,,0.00,weatherlink.com 1.10,2013-01-15 07:09:00,
2013-01-15 01:24:00,8.3,6.0,30.49,West,269,0.0,0.0,90,0.00,,,0.00,weatherlink.com 1.10,2013-01-15 07:24:00,
2013-01-15 01:39:00,8.0,6.0,30.49,West,270,0.0,0.0,90,0.00,,,0.00,weatherlink.com 1.10,2013-01-15 07:39:00,
2013-01-15 01:54:00,6.9,4.0,30.49,West,270,0.0,0.0,89,0.00,,,0.00,weatherlink.com 1.10,2013-01-15 07:54:00,
2013-01-15 02:09:00,6.5,4.0,30.49,West,270,0.0,0.0,90,0.00,,,0.00,weatherlink.com 1.10,2013-01-15 08:09:00,
2013-01-15 02:24:00,6.4,4.0,30.49,West,270,0.0,0.0,90,0.00,,,0.00,weatherlink.com 1.10,2013-01-15 08:24:00,
2013-01-15 02:39:00,6.3,4.0,30.49,West,270,0.0,0.0,91,0.00,,,0.00,weatherlink.com 1.10,2013-01-15 08:39:00,
2013-01-15 02:54:00,6.5,5.0,30.48,West,270,0.0,0.0,91,0.00,,,0.00,weatherlink.com 1.10,2013-01-15 08:54:00,
2013-01-15 03:09:00,7.3,6.0,30.48,West,269,0.0,0.0,92,0.00,,,0.00,weatherlink.com 1.10,2013-01-15 09:09:00,
2013-01-15 03:24:00,7.3,5.0,30.47,West,270,0.0,0.0,91,0.00,,,0.00,weatherlink.com 1.10,2013-01-15 09:24:00,
2013-01-15 03:39:00,6.7,4.0,30.48,West,269,0.0,0.0,90,0.00,,,0.00,weatherlink.com 1.10,2013-01-15 09:39:00,
2013-01-15 03:54:00,6.7,5.0,30.47,West,270,0.0,0.0,91,0.00,,,0.00,weatherlink.com 1.10,2013-01-15 09:54:00,
2013-01-15 04:09:00,6.7,4.0,30.46,West,269,0.0,0.0,90,0.00,,,0.00,weatherlink.com 1.10,2013-01-15 10:09:00,
2013-01-15 04:24:00,6.6,5.0,30.46,West,270,0.0,0.0,91,0.00,,,0.00,weatherlink.com 1.10,2013-01-15 10:24:00,
2013-01-15 04:39:00,7.4,5.0,30.45,West,270,0.0,0.0,91,0.00,,,0.00,weatherlink.com 1.10,2013-01-15 10:39:00,
2013-01-15 04:54:00,6.8,5.0,30.45,West,269,0.0,0.0,90,0.00,,,0.00,weatherlink.com 1.10,2013-01-15 10:54:00,
2013-01-15 05:09:00,6.4,4.0,30.45,West,269,0.0,0.0,90,0.00,,,0.00,weatherlink.com 1.10,2013-01-15 11:09:00,
2013-01-15 05:24:00,6.8,5.0,30.45,West,270,0.0,0.0,90,0.00,,,0.00,weatherlink.com 1.10,2013-01-15 11:24:00,
2013-01-15 05:39:00,5.8,3.0,30.45,West,270,0.0,0.0,89,0.00,,,0.00,weatherlink.com 1.10,2013-01-15 11:39:00,
2013-01-15 05:54:00,6.5,4.0,30.45,West,269,0.0,0.0,90,0.00,,,0.00,weatherlink.com 1.10,2013-01-15 11:54:00,
2013-01-15 06:09:00,6.3,4.0,30.45,West,270,0.0,0.0,90,0.00,,,0.00,weatherlink.com 1.10,2013-01-15 12:09:00,
2013-01-15 06:24:00,6.2,4.0,30.45,West,270,0.0,0.0,91,0.00,,,0.00,weatherlink.com 1.10,2013-01-15 12:24:00,
2013-01-15 06:39:00,8.2,6.0,30.45,West,270,0.0,0.0,91,0.00,,,0.00,weatherlink.com 1.10,2013-01-15 12:39:00,
2013-01-15 06:54:00,7.9,6.0,30.45,West,269,0.0,0.0,90,0.00,,,0.00,weatherlink.com 1.10,2013-01-15 12:54:00,
2013-01-15 07:09:00,8.2,6.0,30.45,West,269,0.0,0.0,90,0.00,,,0.00,weatherlink.com 1.10,2013-01-15 13:09:00,
2013-01-15 07:24:00,9.2,7.0,30.46,West,269,0.0,0.0,90,0.00,,,0.00,weatherlink.com 1.10,2013-01-15 13:24:00,
2013-01-15 07:39:00,8.5,6.0,30.46,West,269,0.0,0.0,89,0.00,,,0.00,weatherlink.com 1.10,2013-01-15 13:39:00,
2013-01-15 07:54:00,9.3,7.0,30.48,West,270,0.0,0.0,90,0.00,,,0.00,weatherlink.com 1.10,2013-01-15 13:54:00,
2013-01-15 08:09:00,11.9,10.0,30.47,West,270,0.0,0.0,91,0.00,,,0.00,weatherlink.com 1.10,2013-01-15 14:09:00,
2013-01-15 08:24:00,13.8,11.0,30.48,West,264,0.0,0.0,87,0.00,,,0.00,weatherlink.com 1.10,2013-01-15 14:24:00,
2013-01-15 08:39:00,16.1,12.0,30.49,ESE,109,0.0,1.0,83,0.00,,,0.00,weatherlink.com 1.10,2013-01-15 14:39:00,
2013-01-15 08:54:00,17.9,12.0,30.49,ESE,117,1.0,1.0,78,0.00,,,0.00,weatherlink.com 1.10,2013-01-15 14:54:00,
2013-01-15 09:09:00,19.2,13.0,30.49,ESE,113,0.0,1.0,76,0.00,,,0.00,weatherlink.com 1.10,2013-01-15 15:09:00,
2013-01-15 09:25:00,20.0,13.0,30.48,ESE,112,0.0,1.0,73,0.00,,,0.00,weatherlink.com 1.10,2013-01-15 15:25:00,
2013-01-15 09:40:00,19.6,12.0,30.46,NE,49,1.0,1.0,73,0.00,,,0.00,weatherlink.com 1.10,2013-01-15 15:40:00,
2013-01-15 09:55:00,20.3,14.0,30.46,SE,127,1.0,3.0,75,0.00,,,0.00,weatherlink.com 1.10,2013-01-15 15:55:00,
2013-01-15 10:10:00,21.9,14.0,30.45,ENE,63,1.0,2.0,72,0.00,,,0.00,weatherlink.com 1.10,2013-01-15 16:10:00,
2013-01-15 10:25:00,22.5,14.0,30.45,ESE,116,0.0,4.0,70,0.00,,,0.00,weatherlink.com 1.10,2013-01-15 16:25:00,
2013-01-15 10:40:00,23.7,14.0,30.45,SE,124,2.0,4.0,66,0.00,,,0.00,weatherlink.com 1.10,2013-01-15 16:40:00,
2013-01-15 10:55:00,24.2,15.0,30.45,ENE,63,0.0,4.0,68,0.00,,,0.00,weatherlink.com 1.10,2013-01-15 16:55:00,
2013-01-15 11:10:00,24.3,15.0,30.43,ESE,102,0.0,4.0,68,0.00,,,0.00,weatherlink.com 1.10,2013-01-15 17:10:00,
2013-01-15 11:25:00,24.9,16.0,30.43,ESE,111,0.0,2.0,68,0.00,,,0.00,weatherlink.com 1.10,2013-01-15 17:25:00,
2013-01-15 11:40:00,25.3,16.0,30.43,ESE,114,3.0,3.0,67,0.00,,,0.00,weatherlink.com 1.10,2013-01-15 17:40:00,
2013-01-15 11:55:00,25.6,16.0,30.41,SSE,148,1.0,4.0,67,0.00,,,0.00,weatherlink.com 1.10,2013-01-15 17:55:00,
2013-01-15 12:10:00,26.6,17.0,30.39,NE,51,1.0,4.0,67,0.00,,,0.00,weatherlink.com 1.10,2013-01-15 18:10:00,
2013-01-15 12:25:00,27.1,17.0,30.38,NE,48,3.0,3.0,66,0.00,,,0.00,weatherlink.com 1.10,2013-01-15 18:25:00,
2013-01-15 12:40:00,26.3,17.0,30.38,ESE,114,3.0,6.0,67,0.00,,,0.00,weatherlink.com 1.10,2013-01-15 18:40:00,
2013-01-15 12:55:00,26.5,16.0,30.37,ESE,113,1.0,5.0,66,0.00,,,0.00,weatherlink.com 1.10,2013-01-15 18:55:00,
2013-01-15 13:10:00,26.6,17.0,30.37,SE,135,1.0,5.0,67,0.00,,,0.00,weatherlink.com 1.10,2013-01-15 19:10:00,
2013-01-15 13:25:00,27.0,16.0,30.37,SE,145,4.0,5.0,64,0.00,,,0.00,weatherlink.com 1.10,2013-01-15 19:25:00,
2013-01-15 13:40:00,27.7,16.0,30.36,NE,45,0.0,3.0,63,0.00,,,0.00,weatherlink.com 1.10,2013-01-15 19:40:00,
2013-01-15 13:55:00,28.1,17.0,30.35,ESE,121,0.0,5.0,64,0.00,,,0.00,weatherlink.com 1.10,2013-01-15 19:55:00,
2013-01-15 14:10:00,28.5,17.0,30.36,SE,141,2.0,4.0,62,0.00,,,0.00,weatherlink.com 1.10,2013-01-15 20:10:00,
2013-01-15 14:25:00,28.6,16.0,30.36,SE,124,2.0,5.0,60,0.00,,,0.00,weatherlink.com 1.10,2013-01-15 20:25:00,
2013-01-15 14:40:00,29.0,17.0,30.35,SE,127,0.0,3.0,60,0.00,,,0.00,weatherlink.com 1.10,2013-01-15 20:40:00,
2013-01-15 14:55:00,29.7,17.0,30.35,ESE,115,1.0,2.0,60,0.00,,,0.00,weatherlink.com 1.10,2013-01-15 20:55:00,
2013-01-15 15:10:00,30.5,17.0,30.35,SSE,156,0.0,2.0,57,0.00,,,0.00,weatherlink.com 1.10,2013-01-15 21:10:00,
2013-01-15 15:25:00,29.2,15.0,30.35,SE,124,0.0,3.0,56,0.00,,,0.00,weatherlink.com 1.10,2013-01-15 21:25:00,
2013-01-15 15:41:00,28.2,13.0,30.35,SSE,162,1.0,3.0,54,0.00,,,0.00,weatherlink.com 1.10,2013-01-15 21:41:00,
2013-01-15 15:56:00,27.3,14.0,30.35,South,186,2.0,3.0,58,0.00,,,0.00,weatherlink.com 1.10,2013-01-15 21:56:00,
2013-01-15 16:11:00,27.0,15.0,30.35,SSE,168,2.0,4.0,60,0.00,,,0.00,weatherlink.com 1.10,2013-01-15 22:11:00,
2013-01-15 16:26:00,26.8,15.0,30.34,SSE,152,0.0,3.0,61,0.00,,,0.00,weatherlink.com 1.10,2013-01-15 22:26:00,
2013-01-15 16:41:00,26.4,15.0,30.34,SSE,148,0.0,1.0,62,0.00,,,0.00,weatherlink.com 1.10,2013-01-15 22:41:00,
2013-01-15 16:56:00,25.1,15.0,30.34,SW,228,0.0,0.0,65,0.00,,,0.00,weatherlink.com 1.10,2013-01-15 22:56:00,
2013-01-15 17:11:00,23.6,14.0,30.34,SW,228,0.0,0.0,68,0.00,,,0.00,weatherlink.com 1.10,2013-01-15 23:11:00,
2013-01-15 17:26:00,22.6,15.0,30.33,SW,228,0.0,0.0,71,0.00,,,0.00,weatherlink.com 1.10,2013-01-15 23:26:00,
2013-01-15 17:41:00,21.1,14.0,30.32,SW,228,0.0,0.0,74,0.00,,,0.00,weatherlink.com 1.10,2013-01-15 23:41:00,
2013-01-15 17:56:00,20.3,14.0,30.31,SW,226,0.0,0.0,75,0.00,,,0.00,weatherlink.com 1.10,2013-01-15 23:56:00,
2013-01-15 18:11:00,20.3,14.0,30.31,SW,226,0.0,0.0,77,0.00,,,0.00,weatherlink.com 1.10,2013-01-16 00:11:00,
2013-01-15 18:26:00,19.6,14.0,30.30,SW,226,0.0,0.0,78,0.00,,,0.00,weatherlink.com 1.10,2013-01-16 00:26:00,
2013-01-15 18:41:00,18.5,13.0,30.29,SW,226,0.0,0.0,79,0.00,,,0.00,weatherlink.com 1.10,2013-01-16 00:41:00,
2013-01-15 18:56:00,18.7,14.0,30.29,SW,226,0.0,0.0,80,0.00,,,0.00,weatherlink.com 1.10,2013-01-16 00:56:00,
2013-01-15 19:11:00,17.4,13.0,30.29,SW,226,0.0,0.0,81,0.00,,,0.00,weatherlink.com 1.10,2013-01-16 01:11:00,
2013-01-15 19:26:00,16.2,12.0,30.28,SW,226,0.0,0.0,82,0.00,,,0.00,weatherlink.com 1.10,2013-01-16 01:26:00,
2013-01-15 19:41:00,17.3,13.0,30.27,SW,226,0.0,0.0,84,0.00,,,0.00,weatherlink.com 1.10,2013-01-16 01:41:00,
2013-01-15 19:56:00,17.0,13.0,30.26,SW,226,0.0,0.0,83,0.00,,,0.00,weatherlink.com 1.10,2013-01-16 01:56:00,
2013-01-15 20:11:00,15.8,12.0,30.25,SW,226,0.0,0.0,84,0.00,,,0.00,weatherlink.com 1.10,2013-01-16 02:11:00,
2013-01-15 20:26:00,15.6,12.0,30.25,SW,228,0.0,1.0,86,0.00,,,0.00,weatherlink.com 1.10,2013-01-16 02:26:00,
2013-01-15 20:41:00,14.9,11.0,30.24,SW,228,0.0,0.0,85,0.00,,,0.00,weatherlink.com 1.10,2013-01-16 02:41:00,
2013-01-15 20:56:00,14.8,11.0,30.24,SW,228,0.0,-999.0,86,-99.99,,,0.00,weatherlink.com 1.10,2013-01-16 02:56:00,
2013-01-15 21:11:00,14.7,12.0,30.24,SW,228,0.0,0.0,87,0.00,,,0.00,weatherlink.com 1.10,2013-01-16 03:11:00,
2013-01-15 21:26:00,14.3,11.0,30.24,SW,226,0.0,0.0,87,0.00,,,0.00,weatherlink.com 1.10,2013-01-16 03:26:00,
2013-01-15 21:41:00,13.7,11.0,30.23,SW,226,0.0,0.0,87,0.00,,,0.00,weatherlink.com 1.10,2013-01-16 03:41:00,
2013-01-15 21:56:00,13.7,11.0,30.22,SE,139,0.0,1.0,88,0.00,,,0.00,weatherlink.com 1.10,2013-01-16 03:56:00,
2013-01-15 22:11:00,13.5,11.0,30.21,SE,139,0.0,0.0,88,0.00,,,0.00,weatherlink.com 1.10,2013-01-16 04:11:00,
2013-01-15 22:26:00,13.6,11.0,30.22,SE,140,0.0,1.0,88,0.00,,,0.00,weatherlink.com 1.10,2013-01-16 04:26:00,
2013-01-15 22:41:00,12.6,10.0,30.21,SE,140,0.0,0.0,88,0.00,,,0.00,weatherlink.com 1.10,2013-01-16 04:41:00,
2013-01-15 22:56:00,11.6,9.0,30.21,SE,139,0.0,1.0,89,0.00,,,0.00,weatherlink.com 1.10,2013-01-16 04:56:00,
2013-01-15 23:11:00,11.6,9.0,30.20,SE,141,0.0,0.0,90,0.00,,,0.00,weatherlink.com 1.10,2013-01-16 05:11:00,
2013-01-15 23:26:00,11.6,9.0,30.20,SE,141,0.0,0.0,90,0.00,,,0.00,weatherlink.com 1.10,2013-01-16 05:26:00,
2013-01-15 23:41:00,10.9,9.0,30.20,SE,141,0.0,0.0,90,0.00,,,0.00,weatherlink.com 1.10,2013-01-16 05:41:00,
2013-01-15 23:56:00,11.5,10.0,30.19,SE,141,0.0,0.0,92,0.00,,,0.00,weatherlink.com 1.10,2013-01-16 05:56:00,